Time;durP1;ratioP1;P1;durP2;ratioP2;P2;SDS_P1;SDS_P2;PMS_P1;PMS_P2;Temp;Humidity;BMP_temperature;BMP_pressure;BME280_temperature;BME280_humidity;BME280_pressure;Samples;Min_cycle;Max_cycle;Signal;HPM_P1;HPM_P2
2022/09/25 00:00:12;;;;;;;3.73;3.53;;;22.90;65.80;;;;;;5092895;28;20451;-79
2022/09/25 00:02:41;;;;;;;4.20;3.80;;;22.90;65.80;;;;;;5092825;28;20437;-79
2022/09/25 00:05:09;;;;;;;5.93;5.43;;;22.90;65.80;;;;;;5092568;28;20449;-80
2022/09/25 00:07:39;;;;;;;7.40;6.80;;;22.90;65.80;;;;;;5093139;28;20443;-79
2022/09/25 00:10:07;;;;;;;5.83;5.23;;;22.90;65.90;;;;;;5091547;28;20818;-79
2022/09/25 00:12:36;;;;;;;7.30;6.50;;;22.80;66.00;;;;;;5069377;28;20472;-79
2022/09/25 00:15:05;;;;;;;6.80;6.20;;;22.80;66.00;;;;;;5085678;28;20940;-79
2022/09/25 00:17:33;;;;;;;7.07;6.53;;;22.80;66.00;;;;;;5088666;28;20465;-80
2022/09/25 00:20:00;;;;;;;4.50;4.10;;;22.80;66.00;;;;;;5092330;28;20444;-81
2022/09/25 00:22:29;;;;;;;4.40;4.10;;;22.80;65.90;;;;;;5092149;28;20433;-80
2022/09/25 00:24:59;;;;;;;5.30;4.80;;;22.80;65.90;;;;;;5092039;28;20459;-79
2022/09/25 00:27:27;;;;;;;4.33;4.03;;;22.80;65.80;;;;;;5087275;28;20468;-79
2022/09/25 00:29:55;;;;;;;4.23;3.93;;;22.80;65.80;;;;;;5074084;28;20453;-80
2022/09/25 00:32:23;;;;;;;4.20;3.80;;;22.80;65.70;;;;;;5073973;28;20504;-80
2022/09/25 00:34:51;;;;;;;4.63;4.30;;;22.80;65.70;;;;;;5092782;28;20444;-80
2022/09/25 00:37:19;;;;;;;4.50;4.20;;;22.80;65.70;;;;;;5071133;28;20469;-80
2022/09/25 00:39:48;;;;;;;4.37;3.97;;;22.80;65.70;;;;;;5061230;28;20448;-80
2022/09/25 00:42:21;;;;;;;3.73;3.43;;;22.80;65.70;;;;;;5082375;28;20438;-80
2022/09/25 00:44:59;;;;;;;3.90;3.70;;;22.80;65.70;;;;;;5091321;28;20440;-80
2022/09/25 00:47:55;;;;;;;4.07;3.77;;;22.80;65.70;;;;;;5072011;28;21047;-82
2022/09/25 00:50:29;;;;;;;4.30;4.00;;;22.80;65.70;;;;;;5085611;28;20532;-81
2022/09/25 00:53:05;;;;;;;3.90;3.60;;;22.80;65.70;;;;;;5091985;28;20436;-79
2022/09/25 00:55:34;;;;;;;4.57;4.20;;;22.80;65.70;;;;;;5091674;28;20436;-81
2022/09/25 00:58:05;;;;;;;5.17;4.50;;;22.80;65.60;;;;;;5092356;28;20464;-80
2022/09/25 01:00:35;;;;;;;5.20;4.10;;;22.80;65.70;;;;;;5086394;28;20556;-79
2022/09/25 01:03:04;;;;;;;3.73;3.43;;;22.80;65.70;;;;;;5092284;28;20445;-80
2022/09/25 01:05:35;;;;;;;3.53;3.27;;;22.80;65.60;;;;;;5091474;28;20466;-80
2022/09/25 01:08:08;;;;;;;4.37;4.07;;;22.80;65.70;;;;;;5092010;28;20433;-80
2022/09/25 01:10:37;;;;;;;3.70;3.50;;;22.80;65.60;;;;;;5091793;28;20926;-80
2022/09/25 01:13:07;;;;;;;4.30;3.90;;;22.80;65.60;;;;;;5091566;28;20488;-80
2022/09/25 01:15:42;;;;;;;3.87;3.67;;;22.80;65.60;;;;;;5091510;28;20433;-80
2022/09/25 01:18:20;;;;;;;4.20;3.90;;;22.80;65.60;;;;;;5091997;28;20461;-81
2022/09/25 01:21:10;;;;;;;3.93;3.67;;;22.80;65.60;;;;;;5091948;28;20440;-80
2022/09/25 01:24:06;;;;;;;4.40;4.07;;;22.80;65.60;;;;;;5087017;28;20475;-80
2022/09/25 01:26:56;;;;;;;3.83;3.53;;;22.80;65.60;;;;;;5092432;28;20429;-80
2022/09/25 01:29:30;;;;;;;4.10;3.80;;;22.80;65.60;;;;;;5091950;28;20428;-80
2022/09/25 01:32:03;;;;;;;4.00;3.70;;;22.80;65.60;;;;;;5091960;28;20451;-80
2022/09/25 01:34:42;;;;;;;4.30;4.00;;;22.80;65.60;;;;;;5091942;28;20417;-80
2022/09/25 01:37:18;;;;;;;3.93;3.63;;;22.80;65.60;;;;;;5095532;28;20471;-80
2022/09/25 01:39:50;;;;;;;3.93;3.63;;;22.80;65.60;;;;;;5095516;28;20848;-79
2022/09/25 01:42:23;;;;;;;3.30;3.10;;;22.80;65.60;;;;;;5095503;28;20501;-80
2022/09/25 01:44:57;;;;;;;3.47;3.17;;;22.80;65.60;;;;;;5095682;28;20435;-82
2022/09/25 01:47:29;;;;;;;4.23;3.70;;;22.80;65.60;;;;;;5094629;28;20467;-79
2022/09/25 01:50:00;;;;;;;4.37;4.03;;;22.80;65.50;;;;;;5095041;28;20440;-79
2022/09/25 01:52:32;;;;;;;5.80;5.30;;;22.80;65.50;;;;;;5095083;28;20478;-81
2022/09/25 01:55:07;;;;;;;7.13;6.53;;;22.80;65.70;;;;;;5082721;28;20548;-79
2022/09/25 01:57:40;;;;;;;6.67;6.10;;;22.80;65.70;;;;;;5092682;28;20468;-80
2022/09/25 02:00:15;;;;;;;7.27;6.63;;;22.80;65.80;;;;;;5094464;28;20444;-80
2022/09/25 02:02:48;;;;;;;8.07;7.27;;;22.70;65.80;;;;;;5094920;28;20543;-79
2022/09/25 02:05:21;;;;;;;7.43;6.77;;;22.70;65.90;;;;;;5094638;28;20776;-80
2022/09/25 02:07:53;;;;;;;6.67;6.10;;;22.70;65.90;;;;;;5094500;28;21064;-80
2022/09/25 02:10:25;;;;;;;5.67;5.17;;;22.70;65.90;;;;;;5094885;28;20421;-80
2022/09/25 02:13:00;;;;;;;6.07;5.57;;;22.60;65.90;;;;;;5094353;28;20476;-79
2022/09/25 02:15:34;;;;;;;7.70;7.00;;;22.60;65.90;;;;;;5094861;28;20428;-80
2022/09/25 02:21:04;;;;;;;8.00;7.20;;;22.60;65.80;;;;;;5094745;28;20523;-79
2022/09/25 02:23:41;;;;;;;6.47;5.93;;;22.60;65.90;;;;;;5094784;28;20429;-80
2022/09/25 02:26:14;;;;;;;6.50;5.90;;;22.60;65.90;;;;;;5084094;28;20472;-80
2022/09/25 02:28:43;;;;;;;8.00;7.40;;;22.60;65.80;;;;;;5074620;28;20452;-80
2022/09/25 02:31:15;;;;;;;6.00;5.40;;;22.60;65.80;;;;;;5081631;28;20942;-80
2022/09/25 02:33:45;;;;;;;6.20;5.70;;;22.60;65.80;;;;;;5094686;28;20440;-80
2022/09/25 02:36:18;;;;;;;6.50;5.90;;;22.60;65.80;;;;;;5094986;28;20425;-80
2022/09/25 02:38:48;;;;;;;6.90;6.30;;;22.60;65.80;;;;;;5092596;28;20476;-80
2022/09/25 02:41:24;;;;;;;7.33;6.70;;;22.60;65.80;;;;;;5076987;28;20425;-80
2022/09/25 02:43:58;;;;;;;7.60;7.00;;;22.60;65.80;;;;;;5094553;28;20526;-80
2022/09/25 02:46:35;;;;;;;6.13;5.67;;;22.60;65.80;;;;;;5093305;28;20423;-80
2022/09/25 02:49:15;;;;;;;7.53;6.93;;;22.60;65.80;;;;;;5094031;28;20895;-79
2022/09/25 02:51:52;;;;;;;7.00;6.40;;;22.50;65.80;;;;;;5076358;28;20784;-79
2022/09/25 02:54:24;;;;;;;6.50;6.00;;;22.50;65.80;;;;;;5094064;28;20431;-80
2022/09/25 02:56:57;;;;;;;6.57;5.97;;;22.50;65.80;;;;;;5094024;28;20424;-80
2022/09/25 02:59:36;;;;;;;6.17;5.57;;;22.60;65.80;;;;;;5094139;28;20444;-80
2022/09/25 03:02:06;;;;;;;6.87;6.27;;;22.50;65.80;;;;;;5075973;28;20510;-80
2022/09/25 03:04:37;;;;;;;6.77;6.20;;;22.50;65.80;;;;;;5094144;28;20467;-79
2022/09/25 03:07:06;;;;;;;5.70;5.20;;;22.50;65.80;;;;;;5076011;28;20453;-79
2022/09/25 03:09:37;;;;;;;5.57;5.07;;;22.60;65.80;;;;;;5093812;28;20430;-80
2022/09/25 03:12:05;;;;;;;6.50;5.90;;;22.50;65.80;;;;;;5093583;28;20460;-80
2022/09/25 03:14:33;;;;;;;5.93;5.43;;;22.60;65.80;;;;;;5093870;28;20433;-80
2022/09/25 03:17:04;;;;;;;5.83;5.33;;;22.50;65.70;;;;;;5093352;28;20645;-79
2022/09/25 03:19:34;;;;;;;6.30;5.80;;;22.60;65.80;;;;;;5093028;28;20535;-80
2022/09/25 03:22:02;;;;;;;5.80;5.30;;;22.50;65.80;;;;;;5093423;28;20458;-80
2022/09/25 03:24:31;;;;;;;6.87;6.37;;;22.50;65.70;;;;;;5093041;28;20434;-80
2022/09/25 03:26:59;;;;;;;6.57;6.00;;;22.50;65.70;;;;;;5093244;28;20453;-80
2022/09/25 03:29:29;;;;;;;6.63;6.13;;;22.50;65.70;;;;;;5093669;28;20417;-80
2022/09/25 03:31:58;;;;;;;5.50;5.00;;;22.50;65.80;;;;;;5093490;28;20458;-79
2022/09/25 03:34:26;;;;;;;6.50;5.90;;;22.50;65.70;;;;;;5092971;28;20425;-80
2022/09/25 03:36:55;;;;;;;5.20;4.80;;;22.50;65.70;;;;;;5093338;28;20967;-80
2022/09/25 03:39:23;;;;;;;5.30;4.90;;;22.50;65.70;;;;;;5092639;28;20464;-80
2022/09/25 03:41:52;;;;;;;6.13;5.63;;;22.50;65.70;;;;;;5093439;28;20454;-82
2022/09/25 03:44:20;;;;;;;6.67;6.10;;;22.50;65.70;;;;;;5093135;28;20448;-80
2022/09/25 03:46:48;;;;;;;5.87;5.47;;;22.50;65.70;;;;;;5093086;28;20437;-80
2022/09/25 03:49:16;;;;;;;5.70;5.30;;;22.50;65.70;;;;;;5067155;28;20456;-80
2022/09/25 03:51:44;;;;;;;5.70;5.20;;;22.50;65.70;;;;;;5092647;28;20443;-80
2022/09/25 03:54:14;;;;;;;4.83;4.43;;;22.50;65.70;;;;;;5091356;28;20883;-80
2022/09/25 03:56:42;;;;;;;5.60;5.10;;;22.50;65.70;;;;;;5074901;28;20427;-80
2022/09/25 03:59:10;;;;;;;4.37;3.97;;;22.50;65.80;;;;;;5092035;28;20459;-80
2022/09/25 04:01:39;;;;;;;3.90;3.60;;;22.50;65.70;;;;;;5088635;28;20452;-80
2022/09/25 04:04:07;;;;;;;5.23;4.73;;;22.50;65.60;;;;;;5092679;28;20456;-80
2022/09/25 04:06:35;;;;;;;6.23;5.70;;;22.50;65.60;;;;;;5092303;28;20446;-80
2022/09/25 04:09:03;;;;;;;5.70;5.20;;;22.50;65.70;;;;;;5091784;28;20521;-80
2022/09/25 04:11:33;;;;;;;5.87;5.30;;;22.50;65.70;;;;;;5091462;28;20825;-80
2022/09/25 04:14:02;;;;;;;4.67;4.37;;;22.50;65.70;;;;;;5091964;28;20959;-81
2022/09/25 04:16:30;;;;;;;6.33;5.73;;;22.50;65.70;;;;;;5092045;28;20478;-80
2022/09/25 04:18:58;;;;;;;5.23;4.83;;;22.50;65.70;;;;;;5088441;28;20512;-80
2022/09/25 04:21:27;;;;;;;4.73;4.33;;;22.50;65.70;;;;;;5062150;28;20463;-80
2022/09/25 04:26:42;;;;;;;6.30;5.43;;;22.50;65.60;;;;;;5092491;28;20491;-80
2022/09/25 04:29:10;;;;;;;5.90;5.40;;;22.50;65.60;;;;;;5088879;28;20449;-80
2022/09/25 04:31:38;;;;;;;4.70;4.30;;;22.50;65.60;;;;;;5088075;28;20455;-80
2022/09/25 04:34:05;;;;;;;5.07;4.63;;;22.50;65.60;;;;;;5091859;28;20424;-80
2022/09/25 04:36:34;;;;;;;5.67;5.17;;;22.50;65.60;;;;;;5083240;28;20996;-80
2022/09/25 04:39:02;;;;;;;5.53;5.03;;;22.50;65.60;;;;;;5091582;28;20902;-80
2022/09/25 04:41:30;;;;;;;5.20;4.73;;;22.50;65.60;;;;;;5089228;28;20465;-80
2022/09/25 04:43:59;;;;;;;4.63;4.23;;;22.50;65.60;;;;;;5091220;28;20455;-80
2022/09/25 04:46:27;;;;;;;4.00;3.70;;;22.50;65.70;;;;;;5071985;28;20437;-80
2022/09/25 04:48:55;;;;;;;5.37;4.97;;;22.50;65.60;;;;;;5074946;28;20555;-80
2022/09/25 04:51:24;;;;;;;5.70;5.20;;;22.50;65.60;;;;;;5086121;28;20452;-80
2022/09/25 04:53:52;;;;;;;5.43;4.87;;;22.40;65.60;;;;;;5070815;28;20445;-80
2022/09/25 04:56:20;;;;;;;4.77;4.33;;;22.40;65.60;;;;;;5075645;28;20440;-80
2022/09/25 04:58:49;;;;;;;5.10;4.67;;;22.40;65.70;;;;;;5091351;28;20479;-81
2022/09/25 05:01:20;;;;;;;5.63;5.17;;;22.40;65.60;;;;;;5084570;28;20452;-80
2022/09/25 05:03:52;;;;;;;4.80;4.40;;;22.40;65.70;;;;;;5091442;28;20864;-79
2022/09/25 05:06:21;;;;;;;5.63;5.13;;;22.40;65.60;;;;;;5092371;28;20443;-81
2022/09/25 05:08:49;;;;;;;5.13;4.73;;;22.40;65.70;;;;;;5091414;28;20445;-80
2022/09/25 05:11:18;;;;;;;4.73;4.33;;;22.40;65.60;;;;;;5094618;28;20477;-80
2022/09/25 05:13:50;;;;;;;5.63;5.13;;;22.40;65.60;;;;;;5095672;28;20468;-80
2022/09/25 05:16:20;;;;;;;4.93;4.53;;;22.40;65.60;;;;;;5091568;28;20447;-81
2022/09/25 05:18:48;;;;;;;5.53;5.10;;;22.40;65.60;;;;;;5077170;28;20469;-80
2022/09/25 05:21:16;;;;;;;6.10;5.57;;;22.40;65.60;;;;;;5093925;28;20538;-80
2022/09/25 05:23:44;;;;;;;5.70;5.20;;;22.40;65.60;;;;;;5095394;28;20428;-80
2022/09/25 05:26:13;;;;;;;5.30;4.80;;;22.40;65.60;;;;;;5095329;28;20432;-80
2022/09/25 05:28:41;;;;;;;5.73;5.23;;;22.40;65.60;;;;;;5095300;28;20949;-81
2022/09/25 05:31:09;;;;;;;3.60;3.40;;;22.40;65.60;;;;;;5075086;28;20440;-79
2022/09/25 05:33:39;;;;;;;5.20;4.70;;;22.40;65.60;;;;;;5073754;28;20525;-80
2022/09/25 05:36:08;;;;;;;5.23;4.77;;;22.40;65.60;;;;;;5085521;28;20450;-80
2022/09/25 05:38:38;;;;;;;5.73;5.23;;;22.40;65.60;;;;;;5094347;28;20830;-80
2022/09/25 05:41:08;;;;;;;4.53;4.20;;;22.40;65.60;;;;;;5094911;28;20462;-80
2022/09/25 05:43:40;;;;;;;5.90;5.40;;;22.40;65.60;;;;;;5095058;28;20775;-80
2022/09/25 05:46:08;;;;;;;5.07;4.30;;;22.40;65.60;;;;;;5095397;28;20496;-80
2022/09/25 05:48:37;;;;;;;5.03;4.37;;;22.40;65.60;;;;;;5094897;28;20455;-80
2022/09/25 05:51:06;;;;;;;4.97;4.47;;;22.40;65.60;;;;;;5095308;28;20442;-79
2022/09/25 05:53:35;;;;;;;4.50;4.07;;;22.40;65.60;;;;;;5093314;28;20463;-80
2022/09/25 05:56:05;;;;;;;4.23;3.93;;;22.40;65.60;;;;;;5095276;28;20978;-80
2022/09/25 05:58:34;;;;;;;4.97;4.57;;;22.40;65.60;;;;;;5094867;28;20454;-80
2022/09/25 06:01:04;;;;;;;3.93;3.63;;;22.40;65.60;;;;;;5093048;28;20427;-80
2022/09/25 06:03:32;;;;;;;4.47;4.07;;;22.40;65.60;;;;;;5074349;28;20453;-80
2022/09/25 06:06:01;;;;;;;5.77;5.30;;;22.40;65.60;;;;;;5089400;28;20440;-80
2022/09/25 06:08:31;;;;;;;4.63;4.30;;;22.40;65.50;;;;;;5094015;28;20598;-81
2022/09/25 06:11:01;;;;;;;4.70;4.30;;;22.40;65.50;;;;;;5094577;28;20424;-79
2022/09/25 06:13:33;;;;;;;5.03;4.63;;;22.40;65.50;;;;;;5094652;28;20486;-79
2022/09/25 06:16:02;;;;;;;5.50;5.00;;;22.40;65.50;;;;;;5076245;28;20524;-80
2022/09/25 06:18:30;;;;;;;5.30;4.80;;;22.40;65.40;;;;;;5093879;28;20547;-80
2022/09/25 06:21:01;;;;;;;5.23;4.17;;;22.40;65.50;;;;;;5093811;28;20471;-80
2022/09/25 06:23:31;;;;;;;5.50;5.10;;;22.40;65.50;;;;;;5093448;28;20529;-82
2022/09/25 06:26:03;;;;;;;6.03;5.53;;;22.40;65.40;;;;;;5094494;28;20523;-80
2022/09/25 06:28:31;;;;;;;3.20;3.00;;;22.40;65.50;;;;;;5094112;28;20428;-80
2022/09/25 06:31:00;;;;;;;4.93;4.53;;;22.40;65.40;;;;;;5091028;28;20463;-80
2022/09/25 06:33:29;;;;;;;4.73;4.30;;;22.40;65.40;;;;;;5081440;28;20468;-81
2022/09/25 06:35:59;;;;;;;6.23;5.73;;;22.40;65.40;;;;;;5078263;28;20476;-80
2022/09/25 06:38:28;;;;;;;4.27;3.70;;;22.40;65.50;;;;;;5089198;28;20782;-80
2022/09/25 06:40:59;;;;;;;4.83;4.20;;;22.40;65.50;;;;;;5093305;28;20468;-79
2022/09/25 06:43:29;;;;;;;5.20;4.80;;;22.40;65.50;;;;;;5093340;28;20994;-79
2022/09/25 06:46:02;;;;;;;5.63;5.07;;;22.40;65.50;;;;;;5093272;28;20435;-80
2022/09/25 06:48:30;;;;;;;5.40;4.90;;;22.40;65.50;;;;;;5087769;28;20544;-80
2022/09/25 06:51:00;;;;;;;4.10;3.73;;;22.40;65.40;;;;;;5074261;28;20853;-80
2022/09/25 06:53:28;;;;;;;3.63;3.33;;;22.40;65.40;;;;;;5085259;28;20454;-80
2022/09/25 06:55:59;;;;;;;3.47;3.27;;;22.40;65.40;;;;;;5089821;28;20434;-80
2022/09/25 06:58:29;;;;;;;3.40;3.20;;;22.40;65.40;;;;;;5087098;28;20461;-80
2022/09/25 07:00:58;;;;;;;5.10;4.70;;;22.40;65.40;;;;;;5090601;28;20483;-80
2022/09/25 07:03:43;;;;;;;5.30;4.80;;;22.40;65.30;;;;;;5078298;28;20445;-82
2022/09/25 07:06:15;;;;;;;4.80;4.27;;;22.40;65.30;;;;;;5092319;28;20498;-80
2022/09/25 07:08:44;;;;;;;3.83;3.53;;;22.40;65.40;;;;;;5094505;28;20461;-80
2022/09/25 07:11:16;;;;;;;5.47;5.07;;;22.40;65.40;;;;;;5090033;28;20472;-79
2022/09/25 07:13:44;;;;;;;4.17;3.83;;;22.40;65.30;;;;;;5094222;28;20966;-79
2022/09/25 07:16:14;;;;;;;4.77;4.37;;;22.40;65.30;;;;;;5076394;28;20452;-80
2022/09/25 07:18:43;;;;;;;4.07;3.53;;;22.40;65.30;;;;;;5089992;28;21585;-81
2022/09/25 07:21:13;;;;;;;4.37;3.97;;;22.40;65.30;;;;;;5083190;28;20482;-80
2022/09/25 07:23:42;;;;;;;3.53;2.80;;;22.40;65.30;;;;;;5085463;28;20543;-78
2022/09/25 07:26:12;;;;;;;3.63;3.33;;;22.40;65.30;;;;;;5087981;28;20502;-83
2022/09/25 07:28:43;;;;;;;3.90;3.50;;;22.50;65.30;;;;;;5093503;28;20440;-80
2022/09/25 07:31:14;;;;;;;3.97;3.67;;;22.50;65.20;;;;;;5093521;28;20455;-80
2022/09/25 07:33:43;;;;;;;3.30;3.10;;;22.50;65.20;;;;;;5090892;28;20453;-80
2022/09/25 07:36:11;;;;;;;3.90;3.50;;;22.50;65.20;;;;;;5093477;28;20918;-80
2022/09/25 07:38:40;;;;;;;5.07;4.57;;;22.50;65.20;;;;;;5080850;28;20438;-80
2022/09/25 07:41:12;;;;;;;3.70;3.40;;;22.50;65.20;;;;;;5091035;28;20552;-80
2022/09/25 07:43:43;;;;;;;2.63;2.43;;;22.50;65.20;;;;;;5080571;28;20478;-79
2022/09/25 07:46:11;;;;;;;3.80;3.50;;;22.50;64.90;;;;;;5093225;28;20449;-82
2022/09/25 07:48:40;;;;;;;2.73;2.53;;;22.60;65.00;;;;;;5102322;28;20441;-82
2022/09/25 07:51:11;;;;;;;2.50;2.30;;;22.60;64.90;;;;;;5080233;28;20441;-82
2022/09/25 07:53:41;;;;;;;2.87;2.67;;;22.60;64.80;;;;;;5087280;28;20432;-82
2022/09/25 07:56:10;;;;;;;2.37;2.17;;;22.60;64.70;;;;;;5083064;28;20449;-81
2022/09/25 07:58:39;;;;;;;2.10;1.97;;;22.70;64.70;;;;;;5059734;28;20523;-80
2022/09/25 08:01:12;;;;;;;2.60;2.40;;;22.60;64.80;;;;;;5079445;28;20986;-83
2022/09/25 08:03:40;;;;;;;3.07;2.87;;;22.70;64.80;;;;;;5087689;28;20451;-82
2022/09/25 08:06:11;;;;;;;2.53;2.30;;;22.70;64.80;;;;;;5087391;28;20444;-82
2022/09/25 08:08:40;;;;;;;2.80;2.60;;;22.70;64.80;;;;;;5082289;28;20455;-80
2022/09/25 08:11:10;;;;;;;2.60;2.40;;;22.70;64.70;;;;;;5087490;28;20464;-79
2022/09/25 08:13:39;;;;;;;2.90;2.70;;;22.70;64.70;;;;;;5088993;28;20493;-81
2022/09/25 08:16:12;;;;;;;3.27;2.10;;;22.70;64.70;;;;;;5079558;28;20546;-79
2022/09/25 08:18:41;;;;;;;2.17;2.03;;;22.80;64.70;;;;;;5081593;28;20514;-80
2022/09/25 08:21:13;;;;;;;2.70;2.50;;;22.80;64.60;;;;;;5062116;28;20480;-81
2022/09/25 08:23:41;;;;;;;5.10;2.83;;;22.80;64.60;;;;;;5082298;28;20537;-78
2022/09/25 08:26:15;;;;;;;2.83;2.63;;;22.80;64.60;;;;;;5087275;28;20549;-78
2022/09/25 08:28:44;;;;;;;3.47;3.00;;;22.90;64.50;;;;;;5073272;28;20460;-80
2022/09/25 08:31:17;;;;;;;2.93;2.43;;;22.90;64.60;;;;;;5090047;28;20536;-80
2022/09/25 08:33:46;;;;;;;2.43;2.23;;;22.90;64.60;;;;;;5089319;28;20472;-79
2022/09/25 08:36:14;;;;;;;2.70;2.50;;;22.90;64.60;;;;;;5081718;28;20546;-79
2022/09/25 08:38:43;;;;;;;5.13;2.80;;;22.90;64.60;;;;;;5084554;28;20493;-79
2022/09/25 08:41:16;;;;;;;5.00;2.50;;;22.90;64.60;;;;;;5070006;28;20467;-79
2022/09/25 08:43:51;;;;;;;2.50;2.13;;;23.00;64.60;;;;;;5089312;28;20464;-80
2022/09/25 08:49:14;;;;;;;5.77;2.30;;;23.00;64.70;;;;;;5086165;28;20476;-80
2022/09/25 08:51:45;;;;;;;2.47;2.27;;;23.00;64.70;;;;;;5082470;28;20450;-80
2022/09/25 08:54:22;;;;;;;3.93;2.47;;;23.00;64.70;;;;;;5085938;28;20783;-79
2022/09/25 08:56:52;;;;;;;3.03;2.50;;;23.00;64.70;;;;;;5090709;28;20539;-79
2022/09/25 08:59:27;;;;;;;2.90;2.70;;;23.00;64.70;;;;;;5086457;28;20939;-78
2022/09/25 09:02:00;;;;;;;3.70;2.20;;;23.00;64.70;;;;;;5089203;28;20468;-79
2022/09/25 09:04:31;;;;;;;2.70;2.50;;;23.00;64.70;;;;;;5086438;28;21918;-79
2022/09/25 09:07:05;;;;;;;2.20;2.00;;;23.00;64.70;;;;;;5062632;28;20449;-78
2022/09/25 09:09:58;;;;;;;2.70;2.50;;;23.00;64.70;;;;;;5085379;28;20450;-79
2022/09/25 09:12:34;;;;;;;2.57;2.37;;;23.10;64.60;;;;;;5081741;28;20503;-79
2022/09/25 09:15:28;;;;;;;2.60;2.37;;;23.10;64.60;;;;;;5094360;28;20552;-79
2022/09/25 09:18:01;;;;;;;2.83;2.40;;;23.10;64.60;;;;;;5095214;28;20509;-80
2022/09/25 09:20:37;;;;;;;4.57;2.80;;;23.10;64.40;;;;;;5083413;28;20460;-80
2022/09/25 09:23:15;;;;;;;2.60;2.40;;;23.10;64.60;;;;;;5095894;28;20510;-80
2022/09/25 09:25:50;;;;;;;3.63;2.13;;;23.10;64.60;;;;;;5094950;28;20449;-80
2022/09/25 09:28:37;;;;;;;2.50;2.30;;;23.10;64.60;;;;;;5089556;28;20539;-83
2022/09/25 09:31:13;;;;;;;4.57;3.10;;;23.20;64.70;;;;;;5088727;28;20455;-85
2022/09/25 09:33:52;;;;;;;5.67;3.07;;;23.20;65.30;;;;;;5082450;28;20450;-86
2022/09/25 09:36:29;;;;;;;35.97;7.30;;;23.20;65.20;;;;;;5082142;28;20440;-90
2022/09/25 09:39:05;;;;;;;11.67;4.17;;;23.30;65.30;;;;;;5088989;28;20457;-90
2022/09/25 09:41:53;;;;;;;10.60;3.33;;;23.30;65.20;;;;;;5082383;28;20463;-90
2022/09/25 09:44:41;;;;;;;8.43;4.00;;;23.40;64.90;;;;;;5069776;28;20457;-85
2022/09/25 09:47:22;;;;;;;8.60;4.03;;;23.40;65.00;;;;;;5094337;28;20951;-84
2022/09/25 09:50:00;;;;;;;9.00;4.23;;;23.40;65.10;;;;;;5078994;28;20552;-86
2022/09/25 09:52:33;;;;;;;4.63;3.30;;;23.40;65.00;;;;;;5090140;28;20460;-85
2022/09/25 09:55:15;;;;;;;6.97;4.13;;;23.40;64.90;;;;;;5095099;28;20446;-85
2022/09/25 09:57:48;;;;;;;7.70;4.07;;;23.40;64.80;;;;;;5075921;28;20506;-84
2022/09/25 10:00:19;;;;;;;4.87;3.90;;;23.40;64.80;;;;;;5057588;28;20548;-85
2022/09/25 10:02:52;;;;;;;4.93;3.50;;;23.40;64.80;;;;;;5073904;28;20485;-85
2022/09/25 10:05:26;;;;;;;3.83;3.37;;;23.40;64.70;;;;;;5073097;28;20465;-85
2022/09/25 10:07:54;;;;;;;6.67;3.80;;;23.50;64.70;;;;;;5074860;28;20427;-84
2022/09/25 10:10:36;;;;;;;4.97;3.27;;;23.40;64.60;;;;;;5087393;28;20449;-84
2022/09/25 10:13:22;;;;;;;4.20;3.50;;;23.50;64.60;;;;;;5094177;28;20471;-84
2022/09/25 10:15:53;;;;;;;6.23;3.50;;;23.50;64.60;;;;;;5094165;28;20437;-84
2022/09/25 10:18:25;;;;;;;6.20;3.67;;;23.50;64.40;;;;;;5086129;28;20444;-84
2022/09/25 10:20:59;;;;;;;8.60;3.87;;;23.60;64.40;;;;;;5074704;28;20500;-84
2022/09/25 10:23:35;;;;;;;6.73;3.00;;;23.70;64.20;;;;;;5094025;28;20565;-84
2022/09/25 10:26:04;;;;;;;4.30;3.87;;;23.70;64.10;;;;;;5094216;28;20470;-84
2022/09/25 10:28:36;;;;;;;5.53;3.37;;;23.80;64.00;;;;;;5094438;28;20452;-84
2022/09/25 10:31:08;;;;;;;5.43;3.40;;;23.90;64.00;;;;;;5094490;28;20456;-85
2022/09/25 10:33:37;;;;;;;4.57;3.40;;;23.90;63.80;;;;;;5094721;28;20433;-84
2022/09/25 10:36:07;;;;;;;5.97;3.97;;;24.00;63.60;;;;;;5074012;28;20483;-84
2022/09/25 10:38:40;;;;;;;6.90;3.90;;;24.10;63.60;;;;;;5072857;28;20452;-84
2022/09/25 10:41:12;;;;;;;5.53;3.23;;;24.30;63.00;;;;;;5085586;28;20923;-84
2022/09/25 10:43:54;;;;;;;5.03;2.90;;;24.50;62.70;;;;;;5086788;28;20524;-84
2022/09/25 10:52:08;;;;;;;5.10;3.40;;;25.30;60.80;;;;;;5079381;28;20430;-84
2022/09/25 10:54:37;;;;;;;3.57;3.27;;;25.70;60.20;;;;;;5079095;28;20540;-84
2022/09/25 10:57:18;;;;;;;3.20;2.90;;;25.90;59.50;;;;;;5091687;28;20452;-84
2022/09/25 10:59:49;;;;;;;3.50;3.00;;;26.00;59.00;;;;;;5093683;28;20513;-84
2022/09/25 11:02:34;;;;;;;3.90;3.60;;;25.90;59.10;;;;;;5094002;28;20468;-84
2022/09/25 11:05:04;;;;;;;3.90;3.60;;;25.90;59.30;;;;;;5093099;28;21233;-85
2022/09/25 11:07:34;;;;;;;3.40;2.97;;;26.10;59.10;;;;;;5072482;28;20508;-85
2022/09/25 11:10:02;;;;;;;3.43;3.10;;;26.40;58.60;;;;;;5073388;28;20785;-84
2022/09/25 11:12:31;;;;;;;3.93;3.53;;;26.50;58.20;;;;;;5071685;28;20491;-84
2022/09/25 11:15:03;;;;;;;3.20;2.90;;;26.40;58.10;;;;;;5073613;28;20467;-85
2022/09/25 11:17:40;;;;;;;3.53;3.23;;;26.20;58.50;;;;;;5073719;28;20513;-84
2022/09/25 11:20:26;;;;;;;3.50;3.00;;;25.90;59.00;;;;;;5054373;28;20462;-84
2022/09/25 11:23:07;;;;;;;3.20;2.93;;;25.70;59.70;;;;;;5074860;28;20471;-84
2022/09/25 11:25:45;;;;;;;3.23;3.00;;;25.40;60.30;;;;;;5074799;28;20476;-84
2022/09/25 11:28:29;;;;;;;3.50;2.77;;;25.30;60.70;;;;;;5075858;27;20537;-72
2022/09/25 11:31:05;;;;;;;5.23;3.57;;;25.10;61.20;;;;;;5069441;28;20474;-72
2022/09/25 11:33:43;;;;;;;4.00;3.60;;;25.00;61.80;;;;;;5067367;28;20463;-72
2022/09/25 11:36:18;;;;;;;3.70;3.37;;;24.80;61.80;;;;;;5068958;28;20444;-71
2022/09/25 11:41:40;;;;;;;4.97;4.57;;;24.60;62.50;;;;;;5051628;28;20525;-71
2022/09/25 11:44:27;;;;;;;4.17;3.87;;;24.50;63.10;;;;;;5068526;28;20451;-71
2022/09/25 11:47:14;;;;;;;4.50;3.67;;;24.40;63.20;;;;;;5068206;28;20471;-71
2022/09/25 11:49:43;;;;;;;3.07;2.87;;;24.30;62.90;;;;;;5068343;28;20507;-71
2022/09/25 11:52:39;;;;;;;3.40;3.20;;;24.30;63.00;;;;;;5059063;28;20453;-75
2022/09/25 11:55:45;;;;;;;4.43;3.93;;;24.20;62.90;;;;;;5065037;28;20527;-71
2022/09/25 11:58:41;;;;;;;3.60;3.27;;;24.20;62.90;;;;;;5031217;28;20777;-72
2022/09/25 12:01:27;;;;;;;6.77;3.57;;;24.10;63.00;;;;;;5057136;28;20454;-71
2022/09/25 12:04:07;;;;;;;4.07;3.43;;;24.10;63.00;;;;;;5068452;28;20507;-71
2022/09/25 12:06:57;;;;;;;3.30;3.10;;;24.10;63.10;;;;;;5101508;28;20561;-71
2022/09/25 12:09:52;;;;;;;3.47;3.17;;;24.00;63.10;;;;;;5067313;28;20425;-71
2022/09/25 12:12:27;;;;;;;3.43;3.13;;;24.00;63.30;;;;;;5068777;28;20459;-71
2022/09/25 12:15:06;;;;;;;3.23;2.93;;;24.00;63.30;;;;;;5068097;28;20525;-72
2022/09/25 12:17:46;;;;;;;4.77;3.80;;;24.00;63.10;;;;;;5068287;28;20453;-73
2022/09/25 12:20:22;;;;;;;3.20;3.00;;;24.00;63.10;;;;;;5068171;28;20438;-72
2022/09/25 12:23:05;;;;;;;4.53;3.50;;;24.00;63.20;;;;;;5066940;28;20458;-72
2022/09/25 12:25:50;;;;;;;3.50;3.20;;;24.00;63.30;;;;;;5067793;28;20420;-72
2022/09/25 12:28:29;;;;;;;3.77;3.47;;;24.00;63.30;;;;;;5068223;28;20455;-72
2022/09/25 12:31:08;;;;;;;3.40;3.20;;;24.00;63.40;;;;;;5066857;28;20453;-74
2022/09/25 12:33:47;;;;;;;3.80;3.50;;;23.90;63.40;;;;;;5064506;28;20434;-73
2022/09/25 12:36:19;;;;;;;3.93;3.63;;;23.90;63.40;;;;;;5068143;28;20473;-74
2022/09/25 12:38:54;;;;;;;3.20;3.00;;;23.90;63.50;;;;;;5058562;28;20431;-73
2022/09/25 12:41:29;;;;;;;3.90;3.60;;;23.90;63.50;;;;;;5047974;28;20790;-75
2022/09/25 12:44:04;;;;;;;3.80;3.50;;;23.90;63.50;;;;;;5053353;28;20532;-73
2022/09/25 12:46:40;;;;;;;4.17;3.87;;;23.90;63.60;;;;;;5053863;28;20446;-74
2022/09/25 12:49:14;;;;;;;3.60;3.27;;;23.90;63.60;;;;;;5052899;28;20462;-74
2022/09/25 12:51:45;;;;;;;3.63;3.33;;;23.90;63.60;;;;;;5053849;28;20520;-74
2022/09/25 12:54:23;;;;;;;3.43;3.13;;;23.90;63.60;;;;;;5052975;28;20460;-73
2022/09/25 12:56:57;;;;;;;4.03;3.63;;;23.90;63.60;;;;;;5054106;28;20461;-74
2022/09/25 12:59:30;;;;;;;3.00;2.80;;;23.90;63.60;;;;;;5053198;28;20455;-73
2022/09/25 13:02:06;;;;;;;4.43;4.13;;;23.90;63.60;;;;;;5047723;28;20787;-74
2022/09/25 13:04:49;;;;;;;3.70;3.40;;;23.90;63.60;;;;;;5054722;28;20443;-74
2022/09/25 13:07:22;;;;;;;3.57;3.27;;;23.90;63.60;;;;;;5042689;28;20482;-72
2022/09/25 13:09:51;;;;;;;3.70;3.20;;;23.90;63.60;;;;;;5033467;28;20919;-73
2022/09/25 13:12:32;;;;;;;3.43;3.23;;;23.80;63.70;;;;;;5048182;28;20465;-72
2022/09/25 13:15:05;;;;;;;3.80;3.50;;;23.80;63.70;;;;;;5053859;28;20511;-72
2022/09/25 13:17:34;;;;;;;4.60;4.17;;;23.80;63.80;;;;;;5054050;28;20423;-71
2022/09/25 13:20:41;;;;;;;3.73;3.43;;;23.80;63.80;;;;;;5053979;28;20975;-72
2022/09/25 13:23:13;;;;;;;4.20;3.80;;;23.80;63.80;;;;;;5053848;28;20480;-71
2022/09/25 13:25:45;;;;;;;4.47;4.07;;;23.80;64.20;;;;;;5053110;28;20436;-71
2022/09/25 13:28:21;;;;;;;3.73;3.43;;;23.80;64.10;;;;;;5052755;28;20487;-71
2022/09/25 13:31:08;;;;;;;4.20;3.63;;;24.00;63.60;;;;;;5054201;28;20434;-72